Time;durP1;ratioP1;P1;durP2;ratioP2;P2;SDS_P1;SDS_P2;PMS_P1;PMS_P2;Temp;Humidity;BMP_temperature;BMP_pressure;BME280_temperature;BME280_humidity;BME280_pressure;Samples;Min_cycle;Max_cycle;Signal;HPM_P1;HPM_P2
2022/09/02 00:00:33;;;;;;;;;;;;;;;24.09;64.26;100614.66;7400140;19;1518;-48
2022/09/02 00:03:08;;;;;;;;;;;;;;;24.08;64.46;100604.06;7398992;19;1710;-47
2022/09/02 00:05:58;;;;;;;;;;;;;;;24.06;64.49;100600.69;7403776;19;2116;-48
2022/09/02 00:11:39;;;;;;;;;;;;;;;24.17;64.04;100603.84;7402178;19;2375;-48
2022/09/02 00:14:13;;;;;;;;;;;;;;;24.10;64.42;100600.16;7406441;19;1505;-49
2022/09/02 00:16:50;;;;;;;;;;;;;;;24.11;64.54;100609.09;7407624;19;1667;-49
2022/09/02 00:22:21;;;;;;;;;;;;;;;24.11;64.19;100604.53;7404163;19;2105;-49
2022/09/02 00:24:59;;;;;;;;;;;;;;;24.10;64.35;100620.94;7406173;19;1812;-48
2022/09/02 00:27:33;;;;;;;;;;;;;;;24.07;64.44;100608.59;7404376;19;2009;-48
2022/09/02 00:30:15;;;;;;;;;;;;;;;24.11;64.33;100626.13;7406416;19;1592;-48
2022/09/02 00:33:03;;;;;;;;;;;;;;;24.08;64.58;100610.28;7403010;19;1790;-48
2022/09/02 00:35:47;;;;;;;;;;;;;;;;;;;;;
2022/09/02 00:38:41;;;;;;;;;;;;;;;24.07;64.58;100618.56;7404200;19;1695;-48
2022/09/02 00:44:22;;;;;;;;;;;;;;;24.04;64.61;100629.72;7403341;19;2531;-48
2022/09/02 00:46:56;;;;;;;;;;;;;;;23.94;64.69;100619.13;7403980;19;1923;-48
2022/09/02 00:49:53;;;;;;;;;;;;;;;23.98;64.62;100620.44;7405777;19;1917;-48
2022/09/02 00:52:25;;;;;;;;;;;;;;;23.82;65.03;100624.03;7404146;19;1525;-49
2022/09/02 00:55:02;;;;;;;;;;;;;;;23.78;65.61;100631.63;7406101;19;2128;-49
2022/09/02 00:57:36;;;;;;;;;;;;;;;23.74;65.75;100630.25;7405696;19;1675;-49
2022/09/02 01:00:13;;;;;;;;;;;;;;;23.81;65.55;100639.38;7404779;19;1437;-49
2022/09/02 01:02:55;;;;;;;;;;;;;;;23.80;65.34;100626.06;7404403;19;1608;-48
2022/09/02 01:05:37;;;;;;;;;;;;;;;23.77;65.46;100621.81;7405164;19;1724;-48
2022/09/02 01:08:08;;;;;;;;;;;;;;;23.77;65.59;100629.91;7402635;19;1842;-48
2022/09/02 01:10:39;;;;;;;;;;;;;;;23.80;65.30;100616.09;7405112;19;1577;-47
2022/09/02 01:13:22;;;;;;;;;;;;;;;23.75;65.63;100629.22;7405130;19;2010;-48
2022/09/02 01:16:06;;;;;;;;;;;;;;;;;;;;;
2022/09/02 01:18:45;;;;;;;;;;;;;;;23.62;66.08;100627.03;7403316;19;2039;-48
2022/09/02 01:24:07;;;;;;;;;;;;;;;23.69;65.83;100602.91;7400281;19;1868;-47
2022/09/02 01:29:22;;;;;;;;;;;;;;;23.75;65.43;100609.47;7403563;19;2467;-47
2022/09/02 01:31:55;;;;;;;;;;;;;;;23.75;65.31;100615.72;7403394;19;1593;-48
2022/09/02 01:34:33;;;;;;;;;;;;;;;23.65;65.26;100620.44;7401774;19;1800;-48
2022/09/02 01:37:07;;;;;;;;;;;;;;;23.66;65.29;100622.16;7404946;19;1724;-48
2022/09/02 01:40:00;;;;;;;;;;;;;;;23.63;65.20;100628.75;7403500;19;1692;-47
2022/09/02 01:42:38;;;;;;;;;;;;;;;23.76;65.14;100619.28;7403884;19;1948;-48
2022/09/02 01:45:20;;;;;;;;;;;;;;;23.73;64.84;100627.69;7402691;19;1777;-47
2022/09/02 01:48:01;;;;;;;;;;;;;;;23.60;64.88;100612.03;7403297;19;1946;-48
2022/09/02 01:50:35;;;;;;;;;;;;;;;23.63;64.85;100623.34;7405242;19;1800;-48
2022/09/02 01:53:14;;;;;;;;;;;;;;;23.66;64.48;100619.44;7403838;19;2033;-47
2022/09/02 01:55:46;;;;;;;;;;;;;;;23.59;64.81;100632.75;7404212;19;1814;-47
2022/09/02 01:58:34;;;;;;;;;;;;;;;23.57;64.82;100625.84;7403500;19;1695;-48
2022/09/02 02:01:03;;;;;;;;;;;;;;;23.60;64.40;100622.84;7399156;19;3363;-56
2022/09/02 02:03:31;;;;;;;;;;;;;;;23.59;64.43;100621.97;7404145;19;1430;-56
2022/09/02 02:06:00;;;;;;;;;;;;;;;23.53;64.66;100627.22;7405903;19;1631;-57
2022/09/02 02:08:28;;;;;;;;;;;;;;;23.47;64.34;100638.69;7404345;19;1843;-57
2022/09/02 02:10:59;;;;;;;;;;;;;;;23.41;64.77;100627.53;7405135;19;1587;-57
2022/09/02 02:13:28;;;;;;;;;;;;;;;23.47;64.54;100627.88;7404693;19;1584;-57
2022/09/02 02:15:57;;;;;;;;;;;;;;;23.41;64.77;100624.00;7404618;19;1575;-56
2022/09/02 02:18:25;;;;;;;;;;;;;;;23.46;64.65;100636.97;7405261;19;1399;-56
2022/09/02 02:20:54;;;;;;;;;;;;;;;23.57;64.31;100628.56;7405150;19;1489;-57
2022/09/02 02:23:22;;;;;;;;;;;;;;;23.41;64.71;100640.19;7404321;19;1494;-56
2022/09/02 02:25:51;;;;;;;;;;;;;;;23.49;64.42;100637.50;7402030;19;1747;-56
2022/09/02 02:28:22;;;;;;;;;;;;;;;23.40;64.75;100644.75;7404517;19;1861;-56
2022/09/02 02:30:50;;;;;;;;;;;;;;;23.42;64.37;100648.13;7406034;19;1541;-56
2022/09/02 02:33:19;;;;;;;;;;;;;;;23.41;64.70;100643.72;7405588;19;1634;-57
2022/09/02 02:35:47;;;;;;;;;;;;;;;23.52;64.47;100625.53;7405933;19;1613;-56
2022/09/02 02:38:16;;;;;;;;;;;;;;;23.38;64.69;100638.69;7405726;19;1688;-56
2022/09/02 02:40:44;;;;;;;;;;;;;;;23.28;65.17;100645.22;7406480;19;1712;-56
2022/09/02 02:43:13;;;;;;;;;;;;;;;23.23;65.27;100654.66;7405227;19;1664;-56
2022/09/02 02:45:44;;;;;;;;;;;;;;;23.02;65.70;100662.41;7404583;19;1603;-56
2022/09/02 02:48:12;;;;;;;;;;;;;;;22.94;65.98;100648.84;7404438;19;1846;-57
2022/09/02 02:50:41;;;;;;;;;;;;;;;23.07;65.33;100649.25;7406357;19;1151;-57
2022/09/02 02:53:11;;;;;;;;;;;;;;;23.20;64.79;100644.22;7405247;19;1734;-57
2022/09/02 02:55:40;;;;;;;;;;;;;;;23.17;64.08;100643.72;7404156;19;1443;-57
2022/09/02 02:58:08;;;;;;;;;;;;;;;23.21;63.84;100655.84;7405351;19;1533;-57
2022/09/02 03:00:37;;;;;;;;;;;;;;;23.14;63.29;100661.06;7403963;19;1347;-57
2022/09/02 03:03:11;;;;;;;;;;;;;;;23.05;63.15;100653.97;7404352;19;1560;-57
2022/09/02 03:05:40;;;;;;;;;;;;;;;23.10;62.55;100653.47;7402778;19;1473;-57
2022/09/02 03:08:09;;;;;;;;;;;;;;;23.14;62.40;100668.31;7403610;19;1868;-57
2022/09/02 03:10:40;;;;;;;;;;;;;;;23.08;62.16;100661.75;7405430;19;1561;-57
2022/09/02 03:13:09;;;;;;;;;;;;;;;23.33;62.04;100676.09;7404752;19;1474;-57
2022/09/02 03:15:38;;;;;;;;;;;;;;;23.41;61.27;100662.63;7403866;19;1754;-57
2022/09/02 03:18:10;;;;;;;;;;;;;;;23.10;61.70;100665.13;7403327;19;1664;-57
2022/09/02 03:20:38;;;;;;;;;;;;;;;23.36;61.04;100662.28;7405108;19;1619;-57
2022/09/02 03:23:07;;;;;;;;;;;;;;;23.42;60.71;100674.28;7402878;19;1616;-57
2022/09/02 03:25:36;;;;;;;;;;;;;;;23.53;60.52;100670.38;7402993;19;1664;-60
2022/09/02 03:28:06;;;;;;;;;;;;;;;23.59;60.23;100669.72;7401940;19;1852;-59
2022/09/02 03:30:36;;;;;;;;;;;;;;;23.51;59.92;100667.84;7401539;19;1230;-61
2022/09/02 03:33:05;;;;;;;;;;;;;;;23.55;59.95;100665.66;7404458;19;1315;-60
2022/09/02 03:35:40;;;;;;;;;;;;;;;23.50;59.73;100663.47;7402944;19;1407;-60
2022/09/02 03:38:09;;;;;;;;;;;;;;;23.48;59.51;100661.97;7406154;19;1735;-60
2022/09/02 03:40:37;;;;;;;;;;;;;;;23.44;59.71;100666.84;7410279;19;1479;-56
2022/09/02 03:43:06;;;;;;;;;;;;;;;23.71;59.48;100672.94;7410773;19;1377;-57
2022/09/02 03:45:34;;;;;;;;;;;;;;;23.52;59.40;100677.66;7410677;19;1391;-57
2022/09/02 03:48:03;;;;;;;;;;;;;;;23.61;59.32;100681.19;7410458;19;1848;-57
2022/09/02 03:50:34;;;;;;;;;;;;;;;23.60;59.28;100676.81;7408763;19;1534;-58
2022/09/02 03:53:05;;;;;;;;;;;;;;;23.63;59.26;100685.44;7410522;19;1335;-57
2022/09/02 03:55:34;;;;;;;;;;;;;;;23.50;59.15;100678.84;7406281;19;1645;-57
2022/09/02 03:58:02;;;;;;;;;;;;;;;23.51;60.01;100667.84;7408303;19;1640;-58
2022/09/02 04:00:32;;;;;;;;;;;;;;;23.42;59.17;100685.91;7409720;19;1554;-57
2022/09/02 04:03:02;;;;;;;;;;;;;;;23.58;59.09;100674.28;7407550;19;1479;-57
2022/09/02 04:05:31;;;;;;;;;;;;;;;23.60;59.21;100682.22;7409761;19;1600;-57
2022/09/02 04:07:59;;;;;;;;;;;;;;;23.69;58.96;100683.88;7403299;19;1849;-57
2022/09/02 04:10:30;;;;;;;;;;;;;;;23.80;59.02;100680.88;7409390;19;1398;-57
2022/09/02 04:12:59;;;;;;;;;;;;;;;23.79;58.84;100692.69;7410957;19;1664;-60
2022/09/02 04:15:27;;;;;;;;;;;;;;;23.98;58.45;100674.47;7410889;19;1526;-59
2022/09/02 04:17:56;;;;;;;;;;;;;;;23.99;58.24;100676.13;7410425;19;1333;-58
2022/09/02 04:20:24;;;;;;;;;;;;;;;23.99;58.37;100678.84;7410197;19;1762;-57
2022/09/02 04:22:53;;;;;;;;;;;;;;;23.93;58.12;100676.81;7407029;19;1459;-58
2022/09/02 04:25:22;;;;;;;;;;;;;;;24.03;58.88;100677.47;7405800;19;1390;-57
2022/09/02 04:27:53;;;;;;;;;;;;;;;24.03;58.33;100699.09;7406615;19;1851;-59
2022/09/02 04:30:24;;;;;;;;;;;;;;;24.10;57.83;100700.13;7409386;19;1359;-57
2022/09/02 04:32:55;;;;;;;;;;;;;;;24.07;57.91;100702.31;7409726;19;1354;-58
2022/09/02 04:35:23;;;;;;;;;;;;;;;23.96;58.11;100700.81;7409433;19;1305;-58
2022/09/02 04:37:52;;;;;;;;;;;;;;;23.93;58.00;100707.38;7408865;19;1398;-57
2022/09/02 04:40:21;;;;;;;;;;;;;;;24.04;57.46;100699.97;7408361;19;1553;-57
2022/09/02 04:42:51;;;;;;;;;;;;;;;24.16;57.96;100721.03;7407479;19;1281;-63
2022/09/02 04:45:22;;;;;;;;;;;;;;;24.08;57.94;100715.66;7408010;19;1511;-62
2022/09/02 04:47:50;;;;;;;;;;;;;;;24.04;57.87;100726.97;7408393;19;1846;-62
2022/09/02 04:50:19;;;;;;;;;;;;;;;24.07;58.34;100743.66;7408508;19;1439;-62
2022/09/02 04:52:47;;;;;;;;;;;;;;;24.04;57.59;100738.63;7408301;19;1417;-65
2022/09/02 04:55:16;;;;;;;;;;;;;;;23.98;57.25;100728.50;7407587;19;1775;-65
2022/09/02 04:57:44;;;;;;;;;;;;;;;24.05;57.34;100739.44;7408726;19;1420;-61
2022/09/02 05:00:13;;;;;;;;;;;;;;;24.05;58.30;100740.28;7408939;19;1503;-58
2022/09/02 05:02:44;;;;;;;;;;;;;;;24.08;58.31;100737.25;7409029;19;1266;-58
2022/09/02 05:05:13;;;;;;;;;;;;;;;24.10;57.55;100758.72;7405291;19;1534;-58
2022/09/02 05:07:41;;;;;;;;;;;;;;;24.11;57.33;100749.56;7407207;19;1838;-59
2022/09/02 05:10:11;;;;;;;;;;;;;;;24.05;57.40;100737.59;7408931;19;1435;-59
2022/09/02 05:12:40;;;;;;;;;;;;;;;24.05;57.31;100756.50;7404215;19;1775;-59
2022/09/02 05:15:09;;;;;;;;;;;;;;;24.02;57.38;100754.97;7405940;19;1365;-59
2022/09/02 05:17:38;;;;;;;;;;;;;;;23.98;57.13;100747.41;7407874;19;1511;-59
2022/09/02 05:20:10;;;;;;;;;;;;;;;24.01;57.47;100756.00;7408251;19;1487;-59
2022/09/02 05:22:39;;;;;;;;;;;;;;;24.03;57.09;100742.31;7406782;19;1531;-59
2022/09/02 05:25:09;;;;;;;;;;;;;;;23.99;57.05;100751.78;7406954;19;1393;-59
2022/09/02 05:27:38;;;;;;;;;;;;;;;24.06;56.97;100742.00;7407001;19;1851;-59
2022/09/02 05:30:07;;;;;;;;;;;;;;;24.05;57.17;100745.69;7406997;19;1432;-59
2022/09/02 05:32:36;;;;;;;;;;;;;;;24.06;56.45;100736.59;7407342;19;1402;-59
2022/09/02 05:35:04;;;;;;;;;;;;;;;24.07;56.11;100738.25;7405184;19;1287;-57
2022/09/02 05:37:36;;;;;;;;;;;;;;;24.13;56.07;100747.53;7406518;19;1295;-59
2022/09/02 05:40:05;;;;;;;;;;;;;;;24.11;55.83;100736.91;7403168;19;1637;-58
2022/09/02 05:42:33;;;;;;;;;;;;;;;24.15;56.46;100721.19;7400593;19;1408;-59
2022/09/02 05:45:02;;;;;;;;;;;;;;;24.09;55.81;100722.72;7402436;19;1491;-59
2022/09/02 05:47:30;;;;;;;;;;;;;;;24.16;55.85;100731.84;7405880;19;1872;-58
2022/09/02 05:50:00;;;;;;;;;;;;;;;24.26;55.38;100730.84;7408787;19;1454;-59
2022/09/02 05:52:28;;;;;;;;;;;;;;;24.31;55.21;100725.75;7406005;19;1687;-58
2022/09/02 05:54:59;;;;;;;;;;;;;;;24.37;55.50;100719.66;7406278;19;1414;-59
2022/09/02 05:57:28;;;;;;;;;;;;;;;24.46;57.68;100729.44;7404343;19;1545;-58
2022/09/02 05:59:57;;;;;;;;;;;;;;;24.49;55.11;100730.94;7400959;19;1470;-58
2022/09/02 06:02:26;;;;;;;;;;;;;;;24.51;56.98;100732.50;7395599;19;1696;-58
2022/09/02 06:04:55;;;;;;;;;;;;;;;24.55;57.08;100739.25;7397455;19;1282;-58
2022/09/02 06:07:25;;;;;;;;;;;;;;;24.54;56.37;100739.41;7400652;19;1502;-58
2022/09/02 06:09:54;;;;;;;;;;;;;;;24.60;56.62;100734.16;7401445;19;1873;-58
2022/09/02 06:12:26;;;;;;;;;;;;;;;24.58;55.84;100751.56;7402210;19;1414;-58
2022/09/02 06:14:54;;;;;;;;;;;;;;;24.55;55.93;100728.44;7405159;19;1312;-58
2022/09/02 06:17:23;;;;;;;;;;;;;;;24.51;53.43;100727.09;7404796;19;1248;-58
2022/09/02 06:19:51;;;;;;;;;;;;;;;24.63;55.34;100732.13;7406822;19;1238;-58
2022/09/02 06:22:20;;;;;;;;;;;;;;;24.64;54.45;100728.41;7403419;19;1691;-58
2022/09/02 06:24:48;;;;;;;;;;;;;;;24.64;53.54;100750.88;7405485;19;1529;-58
2022/09/02 06:27:16;;;;;;;;;;;;;;;24.67;56.15;100720.81;7405789;19;1534;-58
2022/09/02 06:29:47;;;;;;;;;;;;;;;24.70;54.49;100733.97;7402983;19;1888;-58
2022/09/02 06:32:16;;;;;;;;;;;;;;;24.77;55.29;100734.09;7402107;19;1178;-58
2022/09/02 06:34:44;;;;;;;;;;;;;;;24.76;55.12;100732.41;7403988;19;1411;-58
2022/09/02 06:37:13;;;;;;;;;;;;;;;24.71;53.05;100745.59;7403715;19;1391;-58
2022/09/02 06:39:43;;;;;;;;;;;;;;;24.77;53.17;100729.56;7405707;19;1240;-58
2022/09/02 06:42:12;;;;;;;;;;;;;;;24.80;54.42;100737.28;7403949;19;1526;-58
2022/09/02 06:44:40;;;;;;;;;;;;;;;24.82;54.16;100750.66;7405404;19;1791;-58
2022/09/02 06:47:11;;;;;;;;;;;;;;;24.78;55.17;100743.91;7405256;19;1494;-58
2022/09/02 06:49:40;;;;;;;;;;;;;;;24.86;54.83;100738.47;7404720;19;1869;-66
2022/09/02 06:52:08;;;;;;;;;;;;;;;24.75;53.44;100714.50;7405133;19;1648;-66
2022/09/02 06:54:37;;;;;;;;;;;;;;;24.85;54.33;100747.63;7405054;19;1746;-66
2022/09/02 06:57:05;;;;;;;;;;;;;;;24.89;53.65;100743.53;7405974;19;1573;-66
2022/09/02 06:59:35;;;;;;;;;;;;;;;24.90;54.50;100747.91;7402922;19;1274;-65
2022/09/02 07:02:03;;;;;;;;;;;;;;;24.81;54.24;100740.88;7402776;19;1521;-66
2022/09/02 07:07:15;;;;;;;;;;;;;;;24.85;52.79;100742.19;7404616;19;1652;-66
2022/09/02 07:09:43;;;;;;;;;;;;;;;24.92;54.26;100755.84;7402333;19;1849;-66
2022/09/02 07:12:13;;;;;;;;;;;;;;;24.97;53.76;100754.31;7403478;19;1529;-65
2022/09/02 07:14:43;;;;;;;;;;;;;;;25.01;53.21;100761.06;7404168;19;1335;-66
2022/09/02 07:17:16;;;;;;;;;;;;;;;25.09;53.55;100753.91;7403636;19;1388;-66
2022/09/02 07:19:47;;;;;;;;;;;;;;;25.11;53.66;100751.88;7405068;19;1601;-66
2022/09/02 07:22:16;;;;;;;;;;;;;;;25.13;53.98;100771.50;7400920;19;1596;-66
2022/09/02 07:24:44;;;;;;;;;;;;;;;25.09;54.10;100754.78;7399406;19;1561;-66
2022/09/02 07:27:13;;;;;;;;;;;;;;;25.11;54.20;100758.16;7399718;19;1194;-66
2022/09/02 07:29:42;;;;;;;;;;;;;;;25.02;53.70;100757.31;7402209;19;1865;-70
2022/09/02 07:32:11;;;;;;;;;;;;;;;25.08;53.96;100741.41;7402256;19;1319;-66
2022/09/02 07:34:42;;;;;;;;;;;;;;;25.11;54.65;100741.06;7401773;19;1448;-64
2022/09/02 07:37:13;;;;;;;;;;;;;;;25.04;56.42;100745.50;7403829;19;1209;-70
2022/09/02 07:40:05;;;;;;;;;;;;;;;24.96;54.76;100733.69;7402358;19;1289;-70
2022/09/02 07:42:34;;;;;;;;;;;;;;;24.92;55.10;100737.75;7402003;19;1359;-63
2022/09/02 07:45:02;;;;;;;;;;;;;;;25.00;55.65;100731.47;7401052;19;1367;-63
2022/09/02 07:47:31;;;;;;;;;;;;;;;24.95;54.86;100748.25;7402353;19;1692;-63
2022/09/02 07:49:59;;;;;;;;;;;;;;;25.00;55.54;100740.44;7402770;19;1853;-63
2022/09/02 07:52:30;;;;;;;;;;;;;;;25.00;55.60;100739.59;7403351;19;1874;-63
2022/09/02 07:54:58;;;;;;;;;;;;;;;24.98;55.77;100728.09;7402289;19;1326;-67
2022/09/02 07:57:27;;;;;;;;;;;;;;;25.04;55.61;100756.31;7401986;19;1197;-65
2022/09/02 07:59:55;;;;;;;;;;;;;;;24.94;55.88;100746.53;7408635;19;1525;-66
2022/09/02 08:02:24;;;;;;;;;;;;;;;24.98;55.40;100752.44;7401308;19;1589;-62
2022/09/02 08:04:52;;;;;;;;;;;;;;;24.96;54.75;100739.09;7400150;19;1603;-64
2022/09/02 08:07:23;;;;;;;;;;;;;;;24.99;55.74;100746.88;7401450;19;1230;-64
2022/09/02 08:09:54;;;;;;;;;;;;;;;24.99;55.75;100757.69;7402852;19;1859;-63
2022/09/02 08:12:22;;;;;;;;;;;;;;;25.00;55.54;100743.13;7401991;19;1225;-64
2022/09/02 08:14:51;;;;;;;;;;;;;;;24.91;56.29;100741.50;7401414;19;1467;-63
2022/09/02 08:17:19;;;;;;;;;;;;;;;24.97;55.65;100729.97;7401849;19;1374;-58
2022/09/02 08:19:48;;;;;;;;;;;;;;;25.04;55.67;100742.78;7402585;19;1405;-58
2022/09/02 08:22:16;;;;;;;;;;;;;;;25.11;55.11;100743.75;7401241;19;1509;-63
2022/09/02 08:24:45;;;;;;;;;;;;;;;25.10;55.50;100750.19;7403962;19;1395;-63
2022/09/02 08:27:16;;;;;;;;;;;;;;;25.02;55.24;100741.09;7407435;19;1225;-64
2022/09/02 08:29:44;;;;;;;;;;;;;;;25.03;55.64;100744.66;7405096;19;1873;-63
2022/09/02 08:32:13;;;;;;;;;;;;;;;25.08;55.82;100741.41;7406647;19;1533;-64
2022/09/02 08:34:41;;;;;;;;;;;;;;;25.06;55.42;100743.47;7405602;19;1340;-61
2022/09/02 08:37:10;;;;;;;;;;;;;;;25.03;55.23;100728.44;7404615;19;1285;-57
2022/09/02 08:39:38;;;;;;;;;;;;;;;25.02;55.31;100729.44;7407063;19;1751;-63
2022/09/02 08:42:10;;;;;;;;;;;;;;;25.05;55.48;100736.34;7410278;19;1617;-62
2022/09/02 08:44:41;;;;;;;;;;;;;;;25.03;55.36;100712.19;7410401;19;1549;-62
2022/09/02 08:47:13;;;;;;;;;;;;;;;24.98;55.55;100715.41;7409585;19;1356;-57
2022/09/02 08:49:43;;;;;;;;;;;;;;;25.08;55.99;100706.25;7408025;19;1865;-62
2022/09/02 08:52:15;;;;;;;;;;;;;;;25.13;56.02;100718.22;7406978;19;1692;-63
2022/09/02 08:54:47;;;;;;;;;;;;;;;25.04;56.24;100705.75;7405922;19;1426;-63
2022/09/02 08:57:16;;;;;;;;;;;;;;;25.06;55.79;100716.41;7406359;19;1611;-58
2022/09/02 08:59:47;;;;;;;;;;;;;;;25.04;55.85;100707.63;7408598;19;1299;-58
2022/09/02 09:02:22;;;;;;;;;;;;;;;24.89;55.78;100705.66;7406743;19;1770;-58
2022/09/02 09:05:04;;;;;;;;;;;;;;;24.97;55.70;100697.50;7408835;19;1210;-59
2022/09/02 09:07:37;;;;;;;;;;;;;;;24.93;55.77;100696.19;7407942;19;1411;-59
2022/09/02 09:10:11;;;;;;;;;;;;;;;25.00;55.52;100685.47;7406648;19;1852;-62
2022/09/02 09:12:49;;;;;;;;;;;;;;;25.00;55.42;100682.78;7409359;19;1351;-63
2022/09/02 09:15:23;;;;;;;;;;;;;;;24.93;55.23;100696.19;7406677;19;1380;-68
2022/09/02 09:17:56;;;;;;;;;;;;;;;25.02;54.62;100692.41;7412497;19;1362;-74
2022/09/02 09:20:26;;;;;;;;;;;;;;;25.05;54.90;100674.13;7409894;19;1730;-74
2022/09/02 09:22:58;;;;;;;;;;;;;;;25.13;54.83;100665.97;7410574;19;1423;-77
2022/09/02 09:25:28;;;;;;;;;;;;;;;25.21;54.79;100663.22;7412046;19;1419;-70
2022/09/02 09:27:57;;;;;;;;;;;;;;;25.31;54.68;100650.31;7408512;19;1592;-63
2022/09/02 09:30:29;;;;;;;;;;;;;;;25.29;54.99;100646.94;7407389;19;1846;-64
2022/09/02 09:32:58;;;;;;;;;;;;;;;25.33;54.91;100637.44;7408310;19;1809;-64
2022/09/02 09:35:28;;;;;;;;;;;;;;;25.32;54.17;100670.94;7409341;19;1228;-59
2022/09/02 09:37:56;;;;;;;;;;;;;;;25.30;55.26;100643.22;7407410;19;1621;-59
2022/09/02 09:40:27;;;;;;;;;;;;;;;25.37;54.71;100665.84;7407824;19;1276;-67
2022/09/02 09:42:56;;;;;;;;;;;;;;;25.28;55.15;100666.91;7407529;19;1553;-65
2022/09/02 09:45:31;;;;;;;;;;;;;;;25.26;55.17;100652.72;7407321;19;1565;-57
2022/09/02 09:48:11;;;;;;;;;;;;;;;25.36;54.91;100657.88;7406000;19;1257;-57
2022/09/02 09:50:39;;;;;;;;;;;;;;;25.47;55.78;100652.06;7406441;19;1848;-56
2022/09/02 09:53:19;;;;;;;;;;;;;;;25.47;55.71;100643.09;7407723;19;1332;-64
2022/09/02 09:55:56;;;;;;;;;;;;;;;25.43;55.72;100642.63;7407231;19;1305;-63
2022/09/02 09:58:25;;;;;;;;;;;;;;;25.27;55.02;100646.28;7408582;19;1380;-66
2022/09/02 10:00:59;;;;;;;;;;;;;;;25.27;55.50;100630.06;7406925;19;1640;-71
2022/09/02 10:03:29;;;;;;;;;;;;;;;25.38;55.64;100626.91;7410911;19;1607;-71
2022/09/02 10:05:58;;;;;;;;;;;;;;;25.40;55.90;100634.84;7407473;19;1694;-65
2022/09/02 10:08:30;;;;;;;;;;;;;;;25.42;56.84;100626.56;7409617;19;1542;-67
2022/09/02 10:11:00;;;;;;;;;;;;;;;25.40;56.54;100611.31;7406932;19;1845;-66
2022/09/02 10:13:30;;;;;;;;;;;;;;;25.37;57.39;100636.06;7406666;19;1262;-69
2022/09/02 10:16:10;;;;;;;;;;;;;;;25.22;56.62;100615.38;7406760;19;1672;-66
2022/09/02 10:18:42;;;;;;;;;;;;;;;25.09;55.73;100619.50;7406153;19;1676;-65
2022/09/02 10:21:16;;;;;;;;;;;;;;;25.04;56.53;100607.50;7406003;19;1732;-66
2022/09/02 10:23:49;;;;;;;;;;;;;;;25.01;56.04;100596.03;7405118;19;1277;-59
2022/09/02 10:26:27;;;;;;;;;;;;;;;25.13;56.80;100598.34;7406510;19;1315;-66
2022/09/02 10:29:05;;;;;;;;;;;;;;;25.20;56.93;100604.69;7405716;19;1323;-66
2022/09/02 10:31:39;;;;;;;;;;;;;;;25.24;57.02;100578.97;7404569;19;1292;-58
2022/09/02 10:34:13;;;;;;;;;;;;;;;25.29;56.76;100573.88;7403035;19;1616;-58
2022/09/02 10:36:50;;;;;;;;;;;;;;;25.29;57.33;100573.88;7402640;19;1363;-58
2022/09/02 10:39:25;;;;;;;;;;;;;;;24.58;58.47;100579.38;7404214;19;1209;-66
2022/09/02 10:41:59;;;;;;;;;;;;;;;23.56;59.85;100572.91;7404600;19;1272;-67
2022/09/02 10:44:35;;;;;;;;;;;;;;;22.94;59.90;100566.09;7406940;19;1518;-67
2022/09/02 10:47:11;;;;;;;;;;;;;;;22.76;59.97;100560.00;7403664;19;1565;-59
2022/09/02 10:49:51;;;;;;;;;;;;;;;22.84;59.99;100551.94;7406939;19;1852;-68
2022/09/02 10:52:28;;;;;;;;;;;;;;;22.87;60.55;100562.38;7406192;19;1388;-58
2022/09/02 10:55:01;;;;;;;;;;;;;;;22.91;60.99;100544.84;7403043;19;1553;-58
2022/09/02 10:57:32;;;;;;;;;;;;;;;22.93;61.28;100553.63;7404284;19;1438;-58
2022/09/02 11:00:05;;;;;;;;;;;;;;;22.96;61.71;100539.81;7405531;19;1669;-63
2022/09/02 11:02:39;;;;;;;;;;;;;;;22.90;61.91;100539.63;7402241;19;1300;-67
2022/09/02 11:05:10;;;;;;;;;;;;;;;22.85;61.96;100534.75;7405436;19;1376;-67
2022/09/02 11:07:44;;;;;;;;;;;;;;;22.77;62.47;100532.03;7406332;19;1542;-67
2022/09/02 11:10:17;;;;;;;;;;;;;;;22.74;62.49;100525.13;7405452;19;1865;-57
2022/09/02 11:12:49;;;;;;;;;;;;;;;22.72;62.70;100528.97;7402596;19;1624;-58
2022/09/02 11:15:21;;;;;;;;;;;;;;;22.70;62.63;100518.38;7405313;19;1603;-66
2022/09/02 11:17:55;;;;;;;;;;;;;;;22.64;62.79;100530.66;7403932;19;1377;-58
2022/09/02 11:20:30;;;;;;;;;;;;;;;22.65;63.14;100536.91;7405594;19;1546;-58
2022/09/02 11:23:01;;;;;;;;;;;;;;;22.58;62.92;100542.13;7402332;19;1660;-58
2022/09/02 11:25:31;;;;;;;;;;;;;;;22.64;63.21;100535.19;7405838;19;1581;-58
2022/09/02 11:28:06;;;;;;;;;;;;;;;22.57;62.99;100535.03;7402540;19;1702;-57
2022/09/02 11:30:38;;;;;;;;;;;;;;;22.55;63.24;100522.72;7402892;19;1865;-66
2022/09/02 11:33:14;;;;;;;;;;;;;;;22.49;63.14;100526.91;7403762;19;1522;-66
2022/09/02 11:35:43;;;;;;;;;;;;;;;22.50;63.40;100538.53;7405585;19;1363;-58
2022/09/02 11:38:20;;;;;;;;;;;;;;;22.46;63.37;100527.25;7403703;19;1491;-57
2022/09/02 11:41:01;;;;;;;;;;;;;;;22.47;63.43;100514.63;7402033;19;1372;-57
2022/09/02 11:43:33;;;;;;;;;;;;;;;22.43;63.38;100506.03;7402247;19;1259;-57
2022/09/02 11:46:29;;;;;;;;;;;;;;;22.68;62.45;100493.47;7402761;19;1238;-58
2022/09/02 11:49:15;;;;;;;;;;;;;;;22.69;62.09;100523.94;7399924;19;1691;-59
2022/09/02 11:52:00;;;;;;;;;;;;;;;22.48;62.88;100519.00;7401091;19;1846;-59
2022/09/02 11:54:31;;;;;;;;;;;;;;;22.39;63.07;100507.38;7402337;19;1448;-67
2022/09/02 11:57:00;;;;;;;;;;;;;;;22.40;63.36;100519.81;7402024;19;1269;-66
2022/09/02 11:59:43;;;;;;;;;;;;;;;22.52;62.40;100510.44;7408244;19;1375;-59
2022/09/02 12:02:13;;;;;;;;;;;;;;;22.74;61.55;100506.25;7406433;19;1635;-67
2022/09/02 12:04:42;;;;;;;;;;;;;;;22.49;62.85;100502.66;7408767;19;1836;-58
2022/09/02 12:07:25;;;;;;;;;;;;;;;22.61;62.63;100514.81;7407085;19;1609;-58
2022/09/02 12:09:57;;;;;;;;;;;;;;;23.36;60.50;100516.56;7408039;19;1846;-66
2022/09/02 12:12:41;;;;;;;;;;;;;;;23.79;59.72;100503.69;7410956;19;1513;-67
2022/09/02 12:15:16;;;;;;;;;;;;;;;23.96;59.62;100492.84;7409899;19;1290;-68
2022/09/02 12:17:59;;;;;;;;;;;;;;;24.08;59.38;100501.41;7411282;19;1522;-68
2022/09/02 12:20:43;;;;;;;;;;;;;;;24.17;58.88;100479.56;7410073;19;1969;-59
2022/09/02 12:23:12;;;;;;;;;;;;;;;24.21;59.47;100489.00;7408377;19;1621;-66
2022/09/02 12:25:49;;;;;;;;;;;;;;;24.24;59.47;100470.75;7410327;19;1348;-66
2022/09/02 12:28:29;;;;;;;;;;;;;;;24.44;59.37;100439.53;7409884;19;1501;-65
2022/09/02 12:31:14;;;;;;;;;;;;;;;24.55;59.84;100449.13;7402694;19;1866;-65
2022/09/02 12:33:43;;;;;;;;;;;;;;;24.58;59.72;100457.72;7406984;19;1396;-68
2022/09/02 12:36:31;;;;;;;;;;;;;;;24.59;59.97;100470.22;7407760;19;1677;-62
2022/09/02 12:39:34;;;;;;;;;;;;;;;24.59;59.87;100483.75;7406544;19;1684;-64
2022/09/02 12:42:06;;;;;;;;;;;;;;;24.66;59.40;100526.28;7403639;19;1410;-61
2022/09/02 12:44:38;;;;;;;;;;;;;;;24.73;59.86;100559.69;7406906;19;1463;-61
2022/09/02 12:47:10;;;;;;;;;;;;;;;24.69;60.81;100555.66;7408329;19;1529;-62
2022/09/02 12:49:43;;;;;;;;;;;;;;;24.65;60.64;100557.03;7407116;19;1431;-66
2022/09/02 12:52:12;;;;;;;;;;;;;;;24.68;61.07;100543.16;7405332;19;1851;-60
2022/09/02 12:54:48;;;;;;;;;;;;;;;24.60;61.12;100553.00;7408250;19;1723;-61
2022/09/02 12:57:18;;;;;;;;;;;;;;;24.67;61.41;100582.03;7409186;19;1721;-66
2022/09/02 12:59:47;;;;;;;;;;;;;;;24.61;61.21;100595.25;7409221;19;1359;-66
2022/09/02 13:02:36;;;;;;;;;;;;;;;24.63;61.35;100592.38;7405755;19;1630;-60
2022/09/02 13:05:21;;;;;;;;;;;;;;;24.68;61.37;100633.25;7408248;19;1562;-61
2022/09/02 13:08:04;;;;;;;;;;;;;;;24.60;63.39;100623.31;7407847;19;1629;-60
2022/09/02 13:10:47;;;;;;;;;;;;;;;24.36;65.17;100634.19;7406220;19;1857;-60
2022/09/02 13:13:30;;;;;;;;;;;;;;;24.30;65.11;100624.09;7407530;19;1740;-59
2022/09/02 13:16:22;;;;;;;;;;;;;;;24.49;65.00;100649.84;7406725;19;1704;-65
2022/09/02 13:19:05;;;;;;;;;;;;;;;24.44;65.14;100617.94;7404783;19;2542;-60
2022/09/02 13:21:49;;;;;;;;;;;;;;;24.51;65.02;100618.97;7405667;19;1506;-66
2022/09/02 13:24:39;;;;;;;;;;;;;;;24.44;66.35;100626.06;7404787;19;1613;-61
2022/09/02 13:27:22;;;;;;;;;;;;;;;24.30;66.77;100614.09;7406937;19;1518;-60
2022/09/02 13:30:08;;;;;;;;;;;;;;;24.30;67.28;100632.19;7405382;19;1574;-68
2022/09/02 13:32:37;;;;;;;;;;;;;;;24.31;66.94;100636.56;7408607;19;1534;-67